Time;durP1;ratioP1;P1;durP2;ratioP2;P2;SDS_P1;SDS_P2;PMS_P1;PMS_P2;Temp;Humidity;BMP_temperature;BMP_pressure;BME280_temperature;BME280_humidity;BME280_pressure;Samples;Min_cycle;Max_cycle;Signal;HPM_P1;HPM_P2
2022/01/30 00:00:14;;;;;;;48.72;7.07;;;7.60;99.90;;;;;;5068127;28;25076;-71
2022/01/30 00:02:39;;;;;;;45.20;8.55;;;7.60;99.90;;;;;;5074402;28;25151;-70
2022/01/30 00:05:07;;;;;;;49.13;7.95;;;7.50;99.90;;;;;;5074187;28;25083;-71
2022/01/30 00:07:33;;;;;;;37.35;7.20;;;7.50;99.90;;;;;;5074181;28;25124;-70
2022/01/30 00:09:59;;;;;;;42.35;7.07;;;7.50;99.90;;;;;;5069731;28;25072;-70
2022/01/30 00:12:44;;;;;;;44.83;8.77;;;7.50;99.90;;;;;;5071104;28;25080;-71
2022/01/30 00:15:11;;;;;;;45.60;7.88;;;7.60;99.90;;;;;;5070332;28;25065;-70
2022/01/30 00:17:43;;;;;;;40.85;7.28;;;7.50;99.90;;;;;;5069798;28;25100;-72
2022/01/30 00:20:15;;;;;;;31.20;6.70;;;7.50;99.90;;;;;;5051691;28;25170;-71
2022/01/30 00:22:54;;;;;;;33.25;9.18;;;7.50;99.90;;;;;;5070208;28;25070;-71
2022/01/30 00:25:31;;;;;;;45.65;8.10;;;7.50;99.90;;;;;;5048695;28;25152;-71
2022/01/30 00:28:06;;;;;;;37.92;6.15;;;7.50;99.90;;;;;;5062953;28;25079;-71
2022/01/30 00:30:35;;;;;;;29.30;6.25;;;7.50;99.90;;;;;;5064786;28;25065;-71
2022/01/30 00:33:04;;;;;;;36.65;6.57;;;7.50;99.90;;;;;;5065915;28;25053;-72
2022/01/30 00:35:30;;;;;;;37.35;8.00;;;7.50;99.90;;;;;;5052025;28;25163;-71
2022/01/30 00:37:56;;;;;;;42.15;6.60;;;7.40;99.90;;;;;;5065867;28;25072;-71
2022/01/30 00:40:21;;;;;;;28.30;6.88;;;7.40;99.90;;;;;;5068560;28;25114;-71
2022/01/30 00:42:47;;;;;;;36.25;6.38;;;7.40;99.90;;;;;;5060238;28;25153;-71
2022/01/30 00:45:13;;;;;;;49.95;8.02;;;7.40;99.90;;;;;;5068149;28;25141;-72
2022/01/30 00:47:38;;;;;;;38.10;6.22;;;7.40;99.90;;;;;;5067285;28;25073;-71
2022/01/30 00:50:05;;;;;;;39.03;7.80;;;7.40;99.90;;;;;;5050136;28;25076;-71
2022/01/30 00:52:31;;;;;;;39.70;7.57;;;7.30;99.90;;;;;;5067367;28;25060;-71
2022/01/30 00:54:57;;;;;;;32.13;6.30;;;7.30;99.90;;;;;;5067259;28;25129;-70
2022/01/30 00:57:22;;;;;;;41.38;8.43;;;7.30;99.90;;;;;;5066046;28;25057;-70
2022/01/30 00:59:49;;;;;;;35.60;6.13;;;7.20;99.90;;;;;;5065931;28;25130;-71
2022/01/30 01:02:15;;;;;;;33.67;6.00;;;7.20;99.90;;;;;;5061727;28;25059;-70
2022/01/30 01:04:41;;;;;;;40.38;7.82;;;7.20;99.90;;;;;;5047515;28;25149;-69
2022/01/30 01:07:12;;;;;;;54.08;9.48;;;7.20;99.90;;;;;;5063178;28;25073;-70
2022/01/30 01:09:39;;;;;;;38.70;8.30;;;7.20;99.90;;;;;;5047870;28;25066;-69
2022/01/30 01:25:18;;;;;;;38.67;7.22;;;7.20;99.90;;;;;;5067340;28;25067;-71
2022/01/30 01:27:43;;;;;;;42.72;8.27;;;7.20;99.90;;;;;;5058611;28;25130;-70
2022/01/30 01:30:10;;;;;;;40.55;6.97;;;7.10;99.90;;;;;;5062033;28;25063;-72
2022/01/30 01:32:35;;;;;;;34.65;7.20;;;7.20;99.90;;;;;;5059400;28;25176;-70
2022/01/30 01:35:01;;;;;;;37.67;6.55;;;7.10;99.90;;;;;;5066098;28;25148;-70
2022/01/30 01:37:27;;;;;;;32.75;6.75;;;7.10;99.90;;;;;;5049429;28;25069;-70
2022/01/30 01:39:52;;;;;;;50.15;7.78;;;7.10;99.90;;;;;;5058312;28;25080;-70
2022/01/30 01:42:18;;;;;;;48.83;7.22;;;7.00;99.90;;;;;;5046947;28;25114;-70
2022/01/30 01:44:48;;;;;;;30.00;6.68;;;7.00;99.90;;;;;;5046347;28;25056;-70
2022/01/30 01:47:17;;;;;;;35.95;6.70;;;7.00;99.90;;;;;;5048485;28;25100;-71
2022/01/30 01:49:43;;;;;;;42.67;7.57;;;7.00;99.90;;;;;;5050817;28;25097;-68
2022/01/30 01:52:21;;;;;;;36.22;7.60;;;7.10;99.90;;;;;;5031763;28;25176;-69
2022/01/30 01:55:05;;;;;;;41.80;8.10;;;7.00;99.90;;;;;;5052882;28;25053;-70
2022/01/30 01:57:31;;;;;;;38.17;8.13;;;7.00;99.90;;;;;;5050425;28;25081;-68
2022/01/30 01:59:56;;;;;;;51.13;8.27;;;7.00;99.90;;;;;;5049405;28;25058;-70
2022/01/30 02:02:24;;;;;;;38.92;7.05;;;7.10;99.90;;;;;;5062685;28;25104;-70
2022/01/30 02:04:49;;;;;;;40.22;6.55;;;7.10;99.90;;;;;;5087560;28;25100;-68
2022/01/30 02:10:03;;;;;;;40.40;6.93;;;7.00;99.90;;;;;;5090002;28;25093;-71
2022/01/30 02:12:37;;;;;;;42.10;7.25;;;7.00;99.90;;;;;;5086209;28;25090;-70
2022/01/30 02:25:57;;;;;;;31.95;5.95;;;6.90;99.90;;;;;;5064350;28;25163;-70
2022/01/30 02:28:24;;;;;;;33.72;6.78;;;6.90;99.90;;;;;;5048985;28;25064;-68
2022/01/30 02:30:58;;;;;;;29.52;6.72;;;6.90;99.90;;;;;;5062209;28;25151;-69
2022/01/30 02:33:24;;;;;;;32.15;6.45;;;6.90;99.90;;;;;;5065308;28;25062;-70
2022/01/30 02:35:53;;;;;;;35.63;6.88;;;6.90;99.90;;;;;;5076350;28;25055;-71
2022/01/30 02:38:26;;;;;;;34.88;6.25;;;6.80;99.90;;;;;;5075332;28;25065;-70
2022/01/30 02:40:55;;;;;;;39.08;8.20;;;6.80;99.90;;;;;;5075481;28;25105;-69
2022/01/30 02:43:26;;;;;;;35.20;5.63;;;6.80;99.90;;;;;;5081127;22;25073;-72
2022/01/30 02:46:09;;;;;;;38.00;5.72;;;6.80;99.90;;;;;;5025250;28;25151;-71
2022/01/30 02:48:51;;;;;;;31.40;5.30;;;6.80;99.90;;;;;;5056319;28;25064;-71
2022/01/30 02:51:18;;;;;;;44.13;6.53;;;6.80;99.90;;;;;;5059551;28;25070;-70
2022/01/30 02:53:54;;;;;;;32.35;5.13;;;6.80;99.90;;;;;;5056970;28;25045;-69
2022/01/30 02:56:19;;;;;;;34.38;6.03;;;6.80;99.90;;;;;;5044157;28;25105;-71
2022/01/30 02:58:45;;;;;;;31.48;6.10;;;6.80;99.90;;;;;;5052756;28;25154;-69
2022/01/30 03:01:10;;;;;;;30.55;6.00;;;6.80;99.90;;;;;;5053538;28;25072;-69
2022/01/30 03:03:36;;;;;;;31.58;6.43;;;6.80;99.90;;;;;;5033675;28;25053;-69
2022/01/30 03:06:02;;;;;;;30.67;6.50;;;6.90;99.90;;;;;;5040235;28;25103;-69
2022/01/30 03:08:28;;;;;;;37.53;5.80;;;6.80;99.90;;;;;;5044241;28;25056;-69
2022/01/30 03:10:56;;;;;;;33.80;5.53;;;6.80;99.90;;;;;;5039956;28;25056;-70
2022/01/30 03:13:22;;;;;;;38.50;5.32;;;6.90;99.90;;;;;;5036817;28;25102;-69
2022/01/30 03:15:48;;;;;;;25.35;6.53;;;6.80;99.90;;;;;;5004788;28;25092;-68
2022/01/30 03:18:13;;;;;;;28.67;6.25;;;6.80;99.90;;;;;;5024044;28;25107;-70
2022/01/30 03:20:41;;;;;;;27.45;5.82;;;6.90;99.90;;;;;;5023518;28;25058;-70
2022/01/30 03:23:07;;;;;;;34.30;6.72;;;6.90;99.90;;;;;;4995836;28;25083;-69
2022/01/30 03:25:33;;;;;;;36.63;5.80;;;6.80;99.90;;;;;;5027108;28;25065;-68
2022/01/30 03:28:01;;;;;;;32.28;6.05;;;6.80;99.90;;;;;;5014187;28;25057;-69
2022/01/30 03:30:30;;;;;;;37.42;6.15;;;6.70;99.90;;;;;;5005001;28;25059;-69
2022/01/30 03:33:05;;;;;;;26.90;5.30;;;6.70;99.90;;;;;;5011618;28;25057;-69
2022/01/30 03:35:31;;;;;;;29.02;5.28;;;6.70;99.90;;;;;;5023087;28;25078;-69
2022/01/30 03:37:57;;;;;;;24.20;5.70;;;6.80;99.90;;;;;;5053220;28;25062;-68
2022/01/30 03:40:22;;;;;;;31.17;5.45;;;6.70;99.90;;;;;;5053745;28;25070;-68
2022/01/30 03:42:48;;;;;;;34.30;5.90;;;6.70;99.90;;;;;;5051918;28;25065;-69
2022/01/30 03:45:13;;;;;;;30.88;5.25;;;6.70;99.90;;;;;;5035159;28;25062;-69
2022/01/30 03:47:39;;;;;;;35.92;6.05;;;6.60;99.90;;;;;;5050409;28;25176;-69
2022/01/30 03:50:05;;;;;;;32.17;6.28;;;6.70;99.90;;;;;;5050586;28;25071;-69
2022/01/30 03:52:30;;;;;;;25.25;4.88;;;6.70;99.90;;;;;;5045064;28;25051;-69
2022/01/30 03:55:03;;;;;;;43.65;5.63;;;6.60;99.90;;;;;;5030065;28;25138;-70
2022/01/30 03:57:28;;;;;;;32.58;5.93;;;6.70;99.90;;;;;;5028103;28;25173;-69
2022/01/30 03:59:54;;;;;;;37.13;6.55;;;6.70;99.90;;;;;;5027282;28;25099;-70
2022/01/30 04:02:19;;;;;;;35.33;6.03;;;6.80;99.90;;;;;;5027021;28;25125;-69
2022/01/30 04:04:45;;;;;;;25.38;5.82;;;6.90;99.90;;;;;;5027315;28;25072;-69
2022/01/30 04:07:11;;;;;;;22.05;5.20;;;6.90;99.90;;;;;;5009932;28;25046;-68
2022/01/30 04:09:37;;;;;;;22.77;5.75;;;6.90;99.70;;;;;;5009926;28;25144;-68
2022/01/30 04:12:03;;;;;;;29.13;4.65;;;7.00;98.90;;;;;;5028200;28;25089;-70
2022/01/30 04:14:29;;;;;;;25.58;4.75;;;7.00;99.10;;;;;;5027007;28;25068;-67
2022/01/30 04:16:55;;;;;;;21.67;4.75;;;6.90;98.90;;;;;;5028054;28;25152;-71
2022/01/30 04:19:20;;;;;;;21.65;4.68;;;6.90;99.00;;;;;;5028049;28;25072;-69
2022/01/30 04:21:46;;;;;;;24.67;4.47;;;6.80;99.10;;;;;;5009201;28;25064;-69
2022/01/30 04:24:12;;;;;;;17.45;3.80;;;6.80;98.70;;;;;;5027098;28;25075;-70
2022/01/30 04:26:37;;;;;;;24.88;4.28;;;6.80;98.80;;;;;;5027095;28;25074;-69
2022/01/30 04:29:04;;;;;;;23.35;4.57;;;6.80;98.00;;;;;;5026881;28;25051;-69
2022/01/30 04:31:30;;;;;;;27.70;4.55;;;6.80;97.90;;;;;;5027178;28;25068;-70
2022/01/30 04:33:56;;;;;;;16.15;4.70;;;6.80;97.70;;;;;;5026457;28;25137;-69
2022/01/30 04:36:27;;;;;;;15.77;4.10;;;6.90;97.70;;;;;;5029370;28;25062;-70
2022/01/30 04:42:28;;;;;;;22.00;4.63;;;6.90;97.60;;;;;;5007743;28;25097;-70
2022/01/30 05:07:50;;;;;;;22.00;4.13;;;6.70;99.60;;;;;;5025087;28;25146;-70
2022/01/30 05:10:16;;;;;;;29.45;4.88;;;6.70;99.60;;;;;;5027449;28;25147;-70
2022/01/30 05:12:48;;;;;;;36.55;6.38;;;6.70;99.80;;;;;;5025594;28;25089;-70
2022/01/30 05:15:17;;;;;;;29.40;4.15;;;6.60;99.80;;;;;;5011618;28;25063;-66
2022/01/30 05:17:43;;;;;;;21.55;3.70;;;6.60;99.90;;;;;;5023258;28;25061;-68
2022/01/30 05:20:10;;;;;;;20.85;4.28;;;6.60;99.90;;;;;;5029941;28;25082;-69
2022/01/30 05:22:36;;;;;;;20.40;3.97;;;6.50;99.90;;;;;;5030468;28;25105;-68
2022/01/30 05:25:03;;;;;;;27.13;4.60;;;6.50;99.90;;;;;;5028914;28;25079;-69
2022/01/30 05:27:29;;;;;;;21.58;4.60;;;6.50;99.90;;;;;;5031371;28;25059;-70
2022/01/30 05:29:55;;;;;;;26.13;4.68;;;6.40;99.90;;;;;;5031195;28;25058;-69
2022/01/30 05:32:21;;;;;;;26.08;4.88;;;6.40;99.90;;;;;;5027759;28;25064;-67
2022/01/30 05:34:47;;;;;;;29.42;4.72;;;6.40;99.90;;;;;;5012936;28;25064;-68
2022/01/30 05:37:18;;;;;;;33.60;4.80;;;6.40;99.90;;;;;;5034451;28;25069;-67
2022/01/30 05:39:44;;;;;;;25.17;4.22;;;6.40;99.90;;;;;;5010627;28;25071;-69
2022/01/30 05:42:11;;;;;;;26.98;5.75;;;6.40;99.90;;;;;;5011394;28;25058;-68
2022/01/30 05:44:56;;;;;;;32.55;5.40;;;6.40;99.90;;;;;;5009633;28;25096;-69
2022/01/30 05:47:35;;;;;;;29.40;4.72;;;6.50;99.90;;;;;;5011749;28;25172;-68
2022/01/30 05:50:01;;;;;;;20.30;3.75;;;6.40;99.90;;;;;;5024777;28;25081;-69
2022/01/30 05:52:26;;;;;;;33.20;4.88;;;6.40;99.90;;;;;;5026273;28;25083;-67
2022/01/30 05:54:52;;;;;;;27.02;4.65;;;6.30;99.90;;;;;;5009833;28;25153;-67
2022/01/30 05:57:17;;;;;;;27.75;4.63;;;6.30;99.90;;;;;;5010876;28;25067;-66
2022/01/30 05:59:43;;;;;;;24.20;4.60;;;6.30;99.90;;;;;;5012818;28;25133;-69
2022/01/30 06:02:09;;;;;;;26.00;5.57;;;6.30;99.90;;;;;;5011584;28;25067;-70
2022/01/30 06:04:35;;;;;;;34.78;5.15;;;6.30;99.90;;;;;;5029431;28;25058;-70
2022/01/30 06:07:01;;;;;;;35.03;5.07;;;6.30;99.90;;;;;;5021913;28;25154;-69
2022/01/30 06:09:27;;;;;;;41.53;5.78;;;6.30;99.90;;;;;;5031271;28;25106;-69
2022/01/30 06:11:53;;;;;;;28.05;4.82;;;6.30;99.90;;;;;;5012289;28;25055;-71
2022/01/30 06:14:20;;;;;;;30.30;6.22;;;6.20;99.90;;;;;;5025848;28;25087;-72
2022/01/30 06:16:47;;;;;;;26.48;5.07;;;6.20;99.90;;;;;;5026329;28;25089;-71
2022/01/30 06:19:13;;;;;;;23.15;4.90;;;6.20;99.90;;;;;;5010461;28;25118;-69
2022/01/30 06:21:39;;;;;;;19.55;5.13;;;6.20;99.90;;;;;;5030029;28;25215;-69
2022/01/30 06:24:05;;;;;;;29.42;4.40;;;6.10;99.90;;;;;;5030487;28;25079;-67
2022/01/30 06:26:30;;;;;;;30.27;4.38;;;6.10;99.90;;;;;;5029496;28;25104;-67
2022/01/30 06:28:56;;;;;;;27.42;5.32;;;6.10;99.90;;;;;;5014097;28;25080;-66
2022/01/30 06:31:22;;;;;;;30.88;5.50;;;6.10;99.90;;;;;;5028139;28;25077;-68
2022/01/30 06:33:48;;;;;;;21.92;3.67;;;6.10;99.90;;;;;;5021155;28;25065;-69
2022/01/30 06:36:13;;;;;;;30.52;4.68;;;6.10;99.90;;;;;;5024654;28;25075;-66
2022/01/30 06:38:39;;;;;;;25.00;4.95;;;6.10;99.90;;;;;;5026283;28;25072;-69
2022/01/30 06:41:04;;;;;;;39.42;5.93;;;6.10;99.90;;;;;;5027621;28;25070;-68
2022/01/30 06:43:30;;;;;;;33.10;5.20;;;6.20;99.80;;;;;;5008982;28;25046;-69
2022/01/30 06:45:56;;;;;;;26.58;4.63;;;6.20;99.80;;;;;;5026096;28;25119;-69
2022/01/30 06:48:22;;;;;;;30.23;5.65;;;6.20;99.60;;;;;;5023215;28;25083;-67
2022/01/30 06:50:48;;;;;;;31.95;5.70;;;6.20;99.70;;;;;;5017265;28;25077;-67
2022/01/30 06:53:14;;;;;;;27.48;5.85;;;6.10;99.60;;;;;;5024717;28;25063;-67
2022/01/30 06:55:42;;;;;;;26.85;6.20;;;6.00;99.80;;;;;;5025109;28;25066;-68
2022/01/30 06:58:14;;;;;;;19.85;4.90;;;6.00;99.70;;;;;;5022485;28;25108;-69
2022/01/30 07:00:39;;;;;;;30.38;5.00;;;6.10;99.60;;;;;;5021670;28;25064;-68
2022/01/30 07:03:05;;;;;;;29.80;5.80;;;6.00;99.70;;;;;;5027426;28;25131;-70
2022/01/30 07:05:30;;;;;;;27.90;5.78;;;6.00;99.80;;;;;;5029102;28;25109;-67
2022/01/30 07:07:56;;;;;;;28.67;5.07;;;6.00;99.80;;;;;;5020997;28;25054;-69
2022/01/30 07:10:22;;;;;;;27.23;4.95;;;6.00;99.60;;;;;;5023230;28;25062;-69
2022/01/30 07:12:50;;;;;;;25.15;5.75;;;5.90;99.80;;;;;;5025900;28;25144;-68
2022/01/30 07:15:16;;;;;;;27.25;5.45;;;5.90;99.70;;;;;;5022693;28;25173;-70
2022/01/30 07:17:42;;;;;;;26.05;5.40;;;6.00;99.60;;;;;;5025027;28;25106;-70
2022/01/30 07:20:08;;;;;;;32.10;5.97;;;6.00;99.40;;;;;;5025544;28;25100;-70
2022/01/30 07:22:34;;;;;;;28.08;5.32;;;6.00;99.40;;;;;;5025578;28;25072;-69
2022/01/30 07:25:00;;;;;;;31.90;5.45;;;5.90;99.30;;;;;;5027586;28;25085;-70
2022/01/30 07:27:26;;;;;;;27.20;4.80;;;6.00;99.10;;;;;;5029704;28;25050;-69
2022/01/30 07:29:52;;;;;;;22.73;5.45;;;6.00;99.00;;;;;;5027456;28;25100;-69
2022/01/30 07:32:18;;;;;;;28.45;5.15;;;5.90;99.10;;;;;;5030399;28;25046;-69
2022/01/30 07:34:45;;;;;;;27.90;4.72;;;5.90;99.20;;;;;;5034785;28;25065;-70
2022/01/30 07:37:12;;;;;;;21.90;5.65;;;5.90;99.00;;;;;;5044873;28;25120;-70
2022/01/30 07:39:38;;;;;;;21.95;5.03;;;6.00;99.00;;;;;;5034008;28;25076;-69
2022/01/30 07:42:04;;;;;;;26.83;4.93;;;5.90;98.90;;;;;;5032873;28;25054;-68
2022/01/30 07:44:30;;;;;;;30.92;6.78;;;6.00;98.70;;;;;;5025149;28;25090;-69
2022/01/30 07:46:55;;;;;;;28.25;5.32;;;5.90;98.70;;;;;;5030158;28;25143;-69
2022/01/30 07:49:22;;;;;;;33.13;6.63;;;5.90;98.70;;;;;;5031074;28;25069;-68
2022/01/30 07:51:47;;;;;;;24.58;5.50;;;5.90;98.50;;;;;;5030898;28;25066;-70
2022/01/30 07:54:13;;;;;;;23.25;5.13;;;5.90;98.70;;;;;;5033054;28;25142;-69
2022/01/30 07:56:41;;;;;;;37.92;7.05;;;5.90;98.50;;;;;;5032870;28;25083;-70
2022/01/30 07:59:07;;;;;;;39.25;6.22;;;5.80;98.50;;;;;;5037134;28;25051;-70
2022/01/30 08:01:32;;;;;;;31.55;5.90;;;5.80;98.50;;;;;;5034837;28;25073;-69
2022/01/30 08:04:03;;;;;;;30.90;5.47;;;5.90;98.60;;;;;;5046773;28;25058;-70
2022/01/30 08:06:29;;;;;;;30.05;4.68;;;5.90;98.50;;;;;;5049566;28;25100;-70
2022/01/30 08:08:54;;;;;;;29.17;6.07;;;5.90;98.50;;;;;;5031127;28;25056;-70
2022/01/30 08:11:20;;;;;;;29.45;4.85;;;5.90;98.70;;;;;;5026752;28;25071;-70
2022/01/30 08:13:45;;;;;;;28.80;5.10;;;5.90;98.90;;;;;;5029533;28;25063;-70
2022/01/30 08:16:11;;;;;;;27.83;5.35;;;5.90;99.00;;;;;;5025986;28;25073;-69
2022/01/30 08:18:38;;;;;;;25.65;5.07;;;5.90;99.00;;;;;;5029465;28;25128;-69
2022/01/30 08:21:19;;;;;;;23.58;4.72;;;5.90;99.10;;;;;;5024741;28;25063;-69
2022/01/30 08:23:44;;;;;;;26.85;5.40;;;6.00;99.10;;;;;;5004757;28;25073;-69
2022/01/30 08:26:10;;;;;;;23.73;5.82;;;6.00;99.20;;;;;;5025239;28;25056;-70
2022/01/30 08:28:36;;;;;;;30.65;6.15;;;6.00;99.30;;;;;;5023206;28;25067;-69
2022/01/30 08:31:01;;;;;;;30.80;5.95;;;6.10;99.60;;;;;;5015312;28;25128;-71
2022/01/30 08:33:27;;;;;;;27.70;5.72;;;6.10;99.70;;;;;;4996736;28;25050;-70
2022/01/30 08:35:53;;;;;;;28.92;5.35;;;6.10;99.90;;;;;;5002941;28;25076;-69
2022/01/30 08:38:18;;;;;;;33.20;6.13;;;6.10;99.90;;;;;;5021638;28;25149;-71
2022/01/30 08:41:07;;;;;;;42.03;7.22;;;6.10;99.90;;;;;;5021275;28;25074;-71
2022/01/30 08:43:33;;;;;;;33.53;6.13;;;6.20;99.90;;;;;;5017466;28;25161;-70
2022/01/30 08:45:59;;;;;;;33.75;5.68;;;6.10;99.90;;;;;;5020575;28;25119;-70
2022/01/30 08:48:25;;;;;;;30.40;6.15;;;6.20;99.90;;;;;;5025230;28;25102;-70
2022/01/30 08:50:51;;;;;;;31.30;5.40;;;6.30;99.90;;;;;;5025834;28;25099;-71
2022/01/30 08:53:17;;;;;;;32.88;5.75;;;6.40;99.90;;;;;;5025755;28;25155;-71
2022/01/30 08:55:43;;;;;;;36.47;6.53;;;6.40;99.90;;;;;;5023866;28;25114;-71
2022/01/30 08:58:35;;;;;;;29.23;6.43;;;6.40;99.90;;;;;;5023415;28;25097;-69
2022/01/30 09:01:12;;;;;;;38.77;7.17;;;6.40;99.90;;;;;;5023080;28;25090;-69
2022/01/30 09:03:39;;;;;;;30.77;5.93;;;6.50;99.90;;;;;;5006096;28;25064;-68
2022/01/30 09:06:07;;;;;;;39.50;6.72;;;6.50;99.90;;;;;;5021212;28;25100;-70
2022/01/30 09:08:33;;;;;;;31.38;6.47;;;6.60;99.90;;;;;;5009802;28;25068;-71
2022/01/30 09:10:58;;;;;;;36.20;7.07;;;6.60;99.90;;;;;;5024871;28;25092;-70
2022/01/30 09:13:24;;;;;;;35.83;6.43;;;6.70;99.90;;;;;;5007233;28;25105;-70
2022/01/30 09:15:56;;;;;;;34.08;6.82;;;6.70;99.90;;;;;;5020002;28;25125;-69
2022/01/30 09:18:22;;;;;;;41.20;7.77;;;6.70;99.90;;;;;;5024094;28;25092;-70
2022/01/30 09:20:48;;;;;;;41.05;7.55;;;6.70;99.90;;;;;;5022274;28;25079;-70
2022/01/30 09:23:14;;;;;;;38.30;6.88;;;6.70;99.90;;;;;;5037850;28;25088;-71
2022/01/30 09:25:40;;;;;;;39.65;5.88;;;6.70;99.90;;;;;;5035482;28;25073;-70
2022/01/30 09:28:07;;;;;;;33.13;6.00;;;6.80;99.90;;;;;;5048454;28;25099;-71
2022/01/30 09:30:34;;;;;;;31.50;7.22;;;6.90;99.90;;;;;;5036735;28;25113;-71
2022/01/30 09:33:00;;;;;;;27.85;5.70;;;7.00;99.90;;;;;;5031056;28;25076;-68
2022/01/30 09:35:26;;;;;;;32.72;5.60;;;7.00;99.90;;;;;;5035327;28;25109;-66
2022/01/30 09:37:51;;;;;;;42.47;6.95;;;7.00;99.90;;;;;;5000136;28;25097;-67
2022/01/30 09:40:18;;;;;;;30.30;6.03;;;7.10;99.90;;;;;;5013492;28;25049;-68
2022/01/30 09:42:51;;;;;;;36.13;7.97;;;7.10;99.50;;;;;;5038699;28;25072;-67
2022/01/30 09:45:20;;;;;;;35.13;6.60;;;7.10;99.50;;;;;;5031246;28;25162;-70
2022/01/30 09:47:47;;;;;;;40.25;6.70;;;7.20;99.40;;;;;;5042681;28;25099;-70
2022/01/30 09:50:16;;;;;;;33.33;6.82;;;7.20;98.60;;;;;;5008101;28;25067;-70
2022/01/30 09:52:41;;;;;;;30.13;6.47;;;7.30;98.70;;;;;;5036602;28;25052;-70
2022/01/30 09:55:11;;;;;;;32.55;6.30;;;7.40;98.60;;;;;;5031271;28;25079;-70
2022/01/30 09:57:37;;;;;;;38.67;7.20;;;7.40;98.60;;;;;;5036632;28;25095;-70
2022/01/30 10:00:20;;;;;;;38.10;7.68;;;7.50;98.60;;;;;;5012921;28;25069;-71
2022/01/30 10:02:46;;;;;;;41.78;6.00;;;7.50;97.60;;;;;;5024508;28;25101;-69
2022/01/30 10:05:13;;;;;;;38.25;7.18;;;7.60;97.40;;;;;;5021562;28;25099;-69
2022/01/30 10:07:50;;;;;;;38.17;6.85;;;7.50;97.40;;;;;;5022336;28;25158;-71
2022/01/30 10:10:23;;;;;;;27.90;6.18;;;7.50;97.20;;;;;;5024179;28;25112;-71
2022/01/30 10:12:59;;;;;;;30.30;6.20;;;7.50;97.60;;;;;;5010739;28;25043;-72
2022/01/30 10:15:48;;;;;;;36.85;6.65;;;7.50;97.20;;;;;;5025649;28;25069;-71
2022/01/30 10:18:14;;;;;;;40.03;5.80;;;7.60;96.90;;;;;;5026105;28;25070;-71
2022/01/30 10:20:39;;;;;;;38.88;7.28;;;7.70;96.30;;;;;;5027042;28;25164;-72
2022/01/30 10:23:09;;;;;;;30.08;5.47;;;7.60;96.20;;;;;;5025856;28;25098;-71
2022/01/30 10:25:50;;;;;;;32.88;5.70;;;7.60;96.40;;;;;;5001951;28;25113;-68
2022/01/30 10:28:21;;;;;;;42.55;6.78;;;7.70;96.70;;;;;;5011501;28;25133;-70
2022/01/30 10:31:17;;;;;;;40.15;6.47;;;7.60;96.80;;;;;;5029502;28;25077;-70
2022/01/30 10:34:04;;;;;;;40.88;6.63;;;7.50;96.80;;;;;;5004242;28;25063;-68
2022/01/30 10:36:32;;;;;;;36.30;6.07;;;7.50;96.80;;;;;;5029372;28;25149;-71
2022/01/30 10:39:13;;;;;;;39.22;5.95;;;7.70;96.40;;;;;;5030456;28;25049;-71
2022/01/30 10:41:41;;;;;;;35.05;5.57;;;7.80;96.30;;;;;;5029237;28;25065;-70
2022/01/30 10:44:09;;;;;;;40.00;6.20;;;8.10;95.90;;;;;;4994607;28;25102;-70
2022/01/30 10:46:49;;;;;;;29.90;6.80;;;8.10;96.00;;;;;;5021861;28;25085;-71
2022/01/30 10:49:19;;;;;;;27.33;5.55;;;7.90;95.90;;;;;;5005347;28;25055;-69
2022/01/30 10:51:57;;;;;;;28.88;6.15;;;7.90;95.90;;;;;;5029620;28;25143;-70
2022/01/30 10:54:26;;;;;;;34.72;5.97;;;7.90;95.60;;;;;;5008801;28;25167;-71
2022/01/30 10:57:04;;;;;;;38.33;5.82;;;7.90;95.60;;;;;;5031650;28;25187;-70
2022/01/30 10:59:30;;;;;;;26.20;5.85;;;8.00;95.60;;;;;;5032885;28;25055;-71
2022/01/30 11:02:17;;;;;;;41.42;5.75;;;8.10;96.00;;;;;;5034527;28;25057;-71
2022/01/30 11:04:44;;;;;;;28.63;7.95;;;8.10;96.30;;;;;;5008997;28;25063;-71
2022/01/30 11:07:10;;;;;;;36.10;7.47;;;8.10;96.30;;;;;;5009444;28;25090;-71
2022/01/30 11:09:43;;;;;;;28.50;6.03;;;7.90;96.70;;;;;;5025844;28;25082;-70
2022/01/30 11:12:15;;;;;;;39.45;6.63;;;7.90;97.10;;;;;;5013398;28;25089;-71
2022/01/30 11:17:19;;;;;;;33.95;5.68;;;7.80;97.30;;;;;;5031976;28;25150;-70
2022/01/30 11:19:47;;;;;;;35.83;6.15;;;7.80;97.30;;;;;;5034859;28;25080;-70
2022/01/30 11:22:16;;;;;;;36.60;8.00;;;7.80;97.40;;;;;;5034743;28;25180;-70
2022/01/30 11:24:54;;;;;;;32.00;7.25;;;7.70;96.80;;;;;;5035425;28;25131;-71
2022/01/30 11:27:23;;;;;;;25.02;5.35;;;7.60;96.90;;;;;;5027298;28;25073;-72
2022/01/30 11:29:50;;;;;;;33.63;5.85;;;7.60;97.10;;;;;;5017602;28;25092;-71
2022/01/30 11:32:17;;;;;;;28.13;6.05;;;7.60;96.70;;;;;;5009140;28;25058;-70
2022/01/30 11:34:44;;;;;;;38.30;6.20;;;7.60;96.80;;;;;;5010786;28;25086;-70
2022/01/30 11:37:15;;;;;;;32.95;5.72;;;7.60;96.00;;;;;;5039629;28;25137;-69
2022/01/30 11:39:51;;;;;;;29.38;5.78;;;8.00;95.70;;;;;;5036822;28;25079;-71
2022/01/30 11:42:40;;;;;;;33.47;6.28;;;8.40;95.20;;;;;;5025284;28;25071;-71
2022/01/30 11:45:08;;;;;;;33.25;5.40;;;8.50;94.50;;;;;;5011858;28;25052;-70
2022/01/30 11:47:45;;;;;;;27.63;5.80;;;9.00;93.50;;;;;;5010495;28;25082;-71
2022/01/30 11:50:11;;;;;;;27.50;6.03;;;9.20;91.60;;;;;;4998799;28;25056;-71
2022/01/30 11:52:51;;;;;;;41.40;7.57;;;9.20;92.70;;;;;;5010298;28;25074;-72
2022/01/30 11:55:39;;;;;;;29.05;7.30;;;9.40;92.30;;;;;;5009471;28;25053;-71
2022/01/30 11:58:06;;;;;;;30.70;6.45;;;9.20;91.30;;;;;;5016335;28;25060;-73
2022/01/30 12:00:40;;;;;;;28.40;7.22;;;9.10;92.00;;;;;;4997244;28;25067;-72
2022/01/30 12:03:35;;;;;;;35.35;6.05;;;8.50;92.60;;;;;;5011222;28;25146;-72
2022/01/30 12:06:22;;;;;;;29.83;5.57;;;8.20;93.30;;;;;;5007316;28;25115;-72
2022/01/30 12:08:49;;;;;;;39.47;6.32;;;8.20;93.50;;;;;;4991189;28;25058;-71
2022/01/30 12:11:37;;;;;;;35.28;5.57;;;8.30;93.80;;;;;;5010676;28;25140;-70
2022/01/30 12:14:43;;;;;;;25.00;6.70;;;9.20;93.50;;;;;;5010096;28;25077;-73
2022/01/30 12:17:09;;;;;;;25.92;5.03;;;9.40;91.20;;;;;;4995641;28;25065;-72
2022/01/30 12:19:36;;;;;;;27.38;5.30;;;9.60;91.60;;;;;;4993896;28;25051;-70
2022/01/30 12:22:28;;;;;;;30.45;4.95;;;9.70;90.20;;;;;;4990752;28;25064;-71
2022/01/30 12:25:30;;;;;;;27.92;6.03;;;10.50;90.10;;;;;;5007922;28;25135;-72
2022/01/30 12:28:02;;;;;;;31.00;5.65;;;9.90;86.60;;;;;;5008462;28;25075;-72
2022/01/30 12:30:43;;;;;;;35.10;7.25;;;9.60;88.70;;;;;;5009513;28;25104;-72
2022/01/30 12:33:35;;;;;;;31.70;6.72;;;9.70;88.60;;;;;;5009888;28;25081;-73
2022/01/30 12:36:03;;;;;;;34.72;6.43;;;9.20;90.60;;;;;;5011789;28;25062;-72
2022/01/30 12:38:56;;;;;;;33.47;7.15;;;8.80;91.90;;;;;;5010717;28;25125;-71
2022/01/30 12:41:23;;;;;;;24.90;5.40;;;8.30;92.20;;;;;;5014598;28;25051;-73
2022/01/30 12:43:55;;;;;;;34.25;6.07;;;8.20;92.80;;;;;;5033105;28;25068;-68
2022/01/30 12:46:24;;;;;;;35.42;6.55;;;8.20;92.70;;;;;;5027443;28;25092;-69
2022/01/30 12:49:11;;;;;;;37.50;6.75;;;8.10;92.50;;;;;;5029453;28;25089;-68
2022/01/30 12:51:39;;;;;;;32.53;6.10;;;8.00;92.30;;;;;;5011797;28;25084;-72
2022/01/30 12:54:07;;;;;;;29.85;6.35;;;8.10;92.20;;;;;;5026442;28;25075;-72
2022/01/30 12:56:33;;;;;;;32.75;7.90;;;8.50;91.80;;;;;;4999703;28;25054;-70
2022/01/30 12:59:06;;;;;;;28.60;6.35;;;9.00;91.10;;;;;;5017607;28;25099;-71
2022/01/30 13:01:38;;;;;;;30.73;5.80;;;9.10;89.60;;;;;;5010689;28;25068;-70
2022/01/30 13:04:07;;;;;;;26.50;5.70;;;8.90;90.40;;;;;;5008538;28;25159;-71
2022/01/30 13:06:51;;;;;;;30.70;5.93;;;8.50;91.20;;;;;;5008001;28;25062;-72
2022/01/30 13:09:25;;;;;;;34.13;6.18;;;8.40;91.10;;;;;;5026857;28;25102;-72
2022/01/30 13:12:11;;;;;;;29.30;7.53;;;8.30;91.60;;;;;;5027470;28;25093;-73
2022/01/30 13:14:41;;;;;;;41.58;7.35;;;8.20;92.10;;;;;;5026594;28;25149;-71
2022/01/30 13:17:11;;;;;;;33.60;6.78;;;8.10;92.80;;;;;;5030323;28;25085;-72
2022/01/30 13:19:44;;;;;;;31.52;5.28;;;8.30;92.80;;;;;;5030118;28;25060;-72
2022/01/30 13:22:22;;;;;;;26.05;5.03;;;8.50;91.70;;;;;;5012252;28;25063;-71
2022/01/30 13:24:54;;;;;;;39.63;5.90;;;8.70;91.40;;;;;;5027950;28;25146;-73
2022/01/30 13:27:19;;;;;;;39.55;5.78;;;8.70;91.90;;;;;;5029738;28;25062;-72
2022/01/30 13:29:45;;;;;;;34.22;6.20;;;8.70;92.20;;;;;;5029546;28;25090;-71
2022/01/30 13:32:12;;;;;;;27.08;6.05;;;8.60;92.10;;;;;;5026219;28;25113;-72
2022/01/30 13:34:40;;;;;;;30.85;6.28;;;8.40;92.60;;;;;;5009171;28;25073;-72
2022/01/30 13:37:06;;;;;;;37.00;6.43;;;8.30;92.80;;;;;;5045380;28;25100;-71
2022/01/30 13:39:43;;;;;;;34.08;6.70;;;8.20;92.80;;;;;;5031938;28;25074;-71
2022/01/30 13:43:04;;;;;;;40.30;7.13;;;8.10;93.00;;;;;;5048762;28;25107;-72
2022/01/30 13:48:16;;;;;;;36.90;6.75;;;8.10;93.40;;;;;;5030218;28;25061;-71
2022/01/30 13:50:47;;;;;;;20.75;4.97;;;8.00;93.50;;;;;;5031083;28;25064;-71
2022/01/30 13:53:15;;;;;;;25.50;6.35;;;8.00;93.30;;;;;;5033543;28;25079;-70
2022/01/30 13:55:52;;;;;;;31.77;7.13;;;8.00;93.10;;;;;;5031011;28;25067;-70
2022/01/30 13:58:20;;;;;;;35.85;6.03;;;7.80;92.80;;;;;;5030565;28;25151;-71